createdAt,value
2018-01-26T08:22:30.915Z,24.63
2018-01-26T08:24:58.387Z,27.33
2018-01-26T08:27:25.851Z,29.10
2018-01-26T08:29:53.333Z,24.60
2018-01-26T08:32:20.860Z,18.85
2018-01-26T08:34:48.415Z,18.48
2018-01-26T08:37:15.893Z,18.40
2018-01-26T08:39:43.423Z,23.38
2018-01-26T08:42:10.939Z,26.30
2018-01-26T08:44:38.422Z,22.02
2018-01-26T08:47:06.682Z,31.33
2018-01-26T08:49:34.178Z,23.33
2018-01-26T08:52:01.709Z,26.20
2018-01-26T08:54:29.218Z,28.23
2018-01-26T08:56:56.722Z,26.37
2018-01-26T08:59:24.364Z,25.10
2018-01-26T09:01:51.841Z,25.73
2018-01-26T09:04:19.361Z,25.30
2018-01-26T09:06:46.841Z,24.08
2018-01-26T09:09:14.309Z,25.65
2018-01-26T09:11:43.314Z,21.98
2018-01-26T09:14:10.802Z,28.52
2018-01-26T09:16:38.286Z,26.48
2018-01-26T09:19:05.762Z,29.45
2018-01-26T09:21:33.307Z,24.17
2018-01-26T09:24:00.738Z,26.52
2018-01-26T09:26:28.217Z,30.30
2018-01-26T09:28:55.718Z,26.05
2018-01-26T09:31:23.178Z,31.30
2018-01-26T09:33:50.664Z,26.60
2018-01-26T09:36:18.924Z,19.30
2018-01-26T09:38:47.190Z,22.60
2018-01-26T09:41:14.674Z,20.08
2018-01-26T09:43:42.902Z,20.60
2018-01-26T09:46:10.394Z,20.17
2018-01-26T09:48:38.681Z,24.30
2018-01-26T09:51:06.950Z,19.83
2018-01-26T09:53:35.219Z,25.15
2018-01-26T09:56:02.703Z,20.52
2018-01-26T09:58:30.226Z,19.75
2018-01-26T10:00:59.240Z,22.90
2018-01-26T10:03:27.478Z,38.03
2018-01-26T10:05:55.005Z,42.78
2018-01-26T10:08:22.447Z,23.58
2018-01-26T10:10:49.922Z,26.98
2018-01-26T10:13:17.422Z,24.08
2018-01-26T10:15:44.902Z,20.50
2018-01-26T10:18:12.379Z,17.75
2018-01-26T10:20:40.653Z,24.33
2018-01-26T10:23:08.891Z,21.52
2018-01-26T10:25:36.407Z,22.95
2018-01-26T10:28:03.873Z,21.58
2018-01-26T10:30:31.392Z,27.05
2018-01-26T10:32:58.890Z,23.95
2018-01-26T10:35:26.359Z,20.88
2018-01-26T10:37:53.857Z,19.20
2018-01-26T10:40:22.082Z,10.30
2018-01-26T10:42:49.580Z,8.50
2018-01-26T10:45:17.059Z,8.15
2018-01-26T10:47:44.555Z,5.40
2018-01-26T10:50:12.022Z,8.85
2018-01-26T10:52:39.471Z,5.97
2018-01-26T10:55:06.958Z,4.57
2018-01-26T10:57:34.451Z,5.45
2018-01-26T11:00:01.994Z,5.57
2018-01-26T11:02:29.407Z,4.22
2018-01-26T11:04:56.927Z,3.65
2018-01-26T11:07:25.162Z,5.62
2018-01-26T11:09:52.653Z,4.00
2018-01-26T11:12:20.133Z,4.20
2018-01-26T11:14:47.623Z,3.20
2018-01-26T11:17:15.097Z,5.60
2018-01-26T11:19:42.558Z,4.05
2018-01-26T11:22:10.033Z,5.22
2018-01-26T11:24:37.529Z,5.87
2018-01-26T11:27:05.745Z,3.85
2018-01-26T11:29:33.259Z,9.20
2018-01-26T11:32:01.494Z,5.30
2018-01-26T11:34:29.019Z,5.20
2018-01-26T11:36:56.473Z,4.37
2018-01-26T11:39:23.999Z,6.53
2018-01-26T11:41:52.261Z,5.10
2018-01-26T11:44:19.741Z,10.05
2018-01-26T11:46:48.002Z,14.63
2018-01-26T11:49:15.524Z,10.48
2018-01-26T11:51:43.029Z,12.75
2018-01-26T11:54:11.275Z,8.82
2018-01-26T11:56:38.769Z,7.03
2018-01-26T11:59:07.067Z,7.55
2018-01-26T12:01:34.537Z,11.80
2018-01-26T12:04:02.054Z,6.78
2018-01-26T12:06:30.326Z,5.80
2018-01-26T12:08:57.785Z,5.12
2018-01-26T12:11:25.308Z,4.60
2018-01-26T12:13:52.758Z,7.40
2018-01-26T12:16:20.324Z,5.18
2018-01-26T12:18:47.811Z,4.65
2018-01-26T12:21:15.485Z,4.95
2018-01-26T12:23:42.948Z,2.97
2018-01-26T12:26:10.429Z,4.03
2018-01-26T12:28:38.701Z,2.95
2018-01-26T12:31:06.930Z,3.42
2018-01-26T12:33:34.413Z,5.70
2018-01-26T12:36:02.671Z,5.78
2018-01-26T12:38:30.154Z,3.95
2018-01-26T12:40:58.472Z,8.05
2018-01-26T12:43:26.012Z,54.25
2018-01-26T12:45:54.286Z,4.18
2018-01-26T12:48:22.579Z,5.90
2018-01-26T12:50:50.049Z,3.95
2018-01-26T12:53:17.555Z,6.32
2018-01-26T12:55:45.802Z,9.43
2018-01-26T12:58:13.321Z,2.97
2018-01-26T13:00:40.807Z,3.50
2018-01-26T13:03:08.282Z,3.37
2018-01-26T13:05:35.790Z,4.00
2018-01-26T13:08:04.018Z,4.53
2018-01-26T13:10:31.551Z,4.05
2018-01-26T13:12:59.020Z,3.37
2018-01-26T13:15:26.473Z,3.40
2018-01-26T13:17:53.967Z,2.97
2018-01-26T13:20:21.456Z,3.67
2018-01-26T13:22:49.702Z,2.62
2018-01-26T13:25:17.183Z,2.47
2018-01-26T13:27:45.501Z,5.07
2018-01-26T13:30:12.975Z,10.27
2018-01-26T13:32:40.475Z,2.90
2018-01-26T13:35:07.969Z,3.78
2018-01-26T13:37:35.441Z,4.18
2018-01-26T13:40:02.938Z,3.08
2018-01-26T13:42:30.429Z,4.90
2018-01-26T13:44:57.886Z,2.90
2018-01-26T13:47:25.415Z,5.68
2018-01-26T13:49:52.869Z,3.95
2018-01-26T13:52:20.342Z,4.57
2018-01-26T13:54:48.614Z,4.50
2018-01-26T13:57:16.888Z,4.75
2018-01-26T13:59:44.402Z,14.85
2018-01-26T14:02:11.881Z,7.00
2018-01-26T14:04:39.362Z,7.15
2018-01-26T14:07:07.632Z,5.37
2018-01-26T14:09:35.890Z,6.80
2018-01-26T14:12:03.413Z,2.85
2018-01-26T14:14:30.899Z,5.05
2018-01-26T14:16:58.382Z,2.85
2018-01-26T14:19:25.862Z,3.15
2018-01-26T14:21:54.106Z,6.85
2018-01-26T14:24:21.637Z,9.50
2018-01-26T14:26:49.106Z,4.20
2018-01-26T14:29:16.574Z,3.00
2018-01-26T14:31:44.090Z,3.30
2018-01-26T14:34:12.327Z,9.85
2018-01-26T14:36:39.845Z,3.62
2018-01-26T14:39:07.305Z,5.85
2018-01-26T14:41:34.769Z,6.00
2018-01-26T14:44:02.299Z,11.93
2018-01-26T14:46:30.570Z,15.20
2018-01-26T14:48:58.822Z,7.32
2018-01-26T14:51:26.297Z,8.13
2018-01-26T14:53:54.585Z,6.00
2018-01-26T14:56:22.074Z,3.55
2018-01-26T14:58:49.570Z,3.75
2018-01-26T15:01:17.072Z,4.70
2018-01-26T15:03:44.530Z,4.20
2018-01-26T15:06:12.015Z,9.20
2018-01-26T15:08:39.518Z,7.97
2018-01-26T15:11:06.967Z,6.95
2018-01-26T15:13:34.458Z,10.70
2018-01-26T15:16:01.914Z,7.12
2018-01-26T15:18:29.414Z,6.00
2018-01-26T15:20:56.899Z,12.88
2018-01-26T15:23:24.418Z,13.90
2018-01-26T15:25:51.908Z,10.80
2018-01-26T15:28:19.411Z,10.77
2018-01-26T15:30:47.678Z,23.58
2018-01-26T15:33:15.909Z,84.72
2018-01-26T15:35:43.415Z,64.28
2018-01-26T15:38:10.882Z,78.00
2018-01-26T15:40:39.238Z,67.57
2018-01-26T15:43:07.501Z,44.33
2018-01-26T15:45:34.965Z,16.35
2018-01-26T15:48:02.478Z,10.25
2018-01-26T15:50:29.989Z,6.12
2018-01-26T15:52:57.458Z,10.32
2018-01-26T15:55:25.759Z,7.43
2018-01-26T15:57:53.284Z,15.00
2018-01-26T16:00:21.546Z,5.90
2018-01-26T16:02:49.020Z,13.02
2018-01-26T16:05:17.317Z,11.50
2018-01-26T16:07:45.598Z,20.88
2018-01-26T16:10:13.868Z,17.87
2018-01-26T16:12:42.152Z,31.55
2018-01-26T16:15:09.630Z,15.27
2018-01-26T16:17:37.117Z,139.07
2018-01-26T16:20:04.635Z,11.63
2018-01-26T16:22:32.134Z,9.85
2018-01-26T16:24:59.610Z,17.30
2018-01-26T16:27:27.114Z,7.40
2018-01-26T16:29:54.598Z,4.60
2018-01-26T16:32:22.077Z,5.45
2018-01-26T16:34:49.582Z,6.40
2018-01-26T16:37:17.809Z,4.05
2018-01-26T16:39:45.302Z,6.93
2018-01-26T16:42:13.549Z,9.70
2018-01-26T16:44:41.038Z,28.60
2018-01-26T16:47:09.335Z,35.30
2018-01-26T16:49:36.831Z,90.47
2018-01-26T16:52:04.399Z,41.22
2018-01-26T16:54:31.834Z,44.13
2018-01-26T16:56:59.351Z,77.85
2018-01-26T16:59:27.578Z,10.65
2018-01-26T17:01:55.090Z,5.87
2018-01-26T17:04:23.352Z,8.63
2018-01-26T17:06:50.876Z,10.27
2018-01-26T17:09:18.351Z,32.53
2018-01-26T17:11:45.879Z,23.70
2018-01-26T17:14:13.443Z,18.35
2018-01-26T17:16:40.915Z,11.93
2018-01-26T17:19:08.430Z,6.60
2018-01-26T17:21:35.901Z,4.32
2018-01-26T17:24:03.377Z,3.80
2018-01-26T17:26:30.903Z,10.35
2018-01-26T17:28:59.113Z,5.25
2018-01-26T17:31:26.599Z,3.33
2018-01-26T17:33:54.054Z,4.03
2018-01-26T17:36:21.523Z,3.15
2018-01-26T17:38:49.027Z,8.00
2018-01-26T17:41:16.522Z,2.60
2018-01-26T17:43:43.994Z,6.10
2018-01-26T17:46:11.451Z,5.35
2018-01-26T17:48:38.917Z,3.50
2018-01-26T17:51:06.378Z,3.17
2018-01-26T17:53:33.890Z,2.70
2018-01-26T17:56:01.377Z,5.05
2018-01-26T17:58:28.861Z,5.62
2018-01-26T18:00:57.137Z,3.10
2018-01-26T18:03:24.623Z,3.25
2018-01-26T18:05:52.118Z,5.30
2018-01-26T18:08:19.606Z,5.03
2018-01-26T18:10:47.081Z,12.57
2018-01-26T18:13:15.343Z,15.80
2018-01-26T18:15:42.848Z,16.58
2018-01-26T18:18:10.354Z,18.23
2018-01-26T18:20:37.855Z,31.42
2018-01-26T18:23:05.338Z,38.45
2018-01-26T18:25:32.841Z,70.82
2018-01-26T18:28:01.097Z,30.70
2018-01-26T18:30:28.597Z,40.40
2018-01-26T18:32:56.114Z,18.60
2018-01-26T18:35:23.642Z,22.37
2018-01-26T18:37:51.130Z,10.93
2018-01-26T18:40:18.600Z,14.38
2018-01-26T18:42:46.087Z,9.65
2018-01-26T18:45:14.328Z,14.05
2018-01-26T18:47:41.829Z,23.45
2018-01-26T18:50:10.067Z,8.30
2018-01-26T18:52:37.550Z,6.95
2018-01-26T18:55:05.070Z,21.62
2018-01-26T18:57:32.590Z,58.03
2018-01-26T19:00:00.083Z,29.98
2018-01-26T19:02:27.573Z,11.43
2018-01-26T19:04:55.054Z,60.75
2018-01-26T19:07:23.291Z,87.60
2018-01-26T19:09:50.802Z,60.53
2018-01-26T19:12:18.309Z,42.03
2018-01-26T19:14:45.769Z,43.78
2018-01-26T19:17:13.270Z,35.88
2018-01-26T19:19:40.761Z,29.00
2018-01-26T19:22:08.237Z,13.52
2018-01-26T19:24:35.727Z,19.75
2018-01-26T19:27:04.030Z,29.05
2018-01-26T19:29:31.580Z,33.45
2018-01-26T19:31:59.896Z,10.45
2018-01-26T19:34:27.508Z,18.85
2018-01-26T19:36:55.303Z,63.35
2018-01-26T19:39:23.169Z,32.88
2018-01-26T19:41:51.049Z,33.97
2018-01-26T19:44:18.913Z,10.75
2018-01-26T19:46:46.771Z,22.80
2018-01-26T19:49:14.642Z,19.87
2018-01-26T19:51:42.608Z,18.80
2018-01-26T19:54:11.296Z,15.98
2018-01-26T19:56:39.163Z,23.25
2018-01-26T19:59:07.040Z,17.20
2018-01-26T20:01:34.898Z,13.50
2018-01-26T20:04:05.735Z,13.62
2018-01-26T20:06:51.559Z,16.90
2018-01-26T20:09:26.308Z,13.88
2018-01-26T20:11:59.856Z,15.13
2018-01-26T20:14:27.720Z,17.95
2018-01-26T20:16:55.690Z,16.42
2018-01-26T20:19:23.563Z,13.57
2018-01-26T20:21:51.425Z,16.62
2018-01-26T20:24:19.293Z,14.35
2018-01-26T20:26:47.166Z,15.65
2018-01-26T20:29:16.051Z,15.20
2018-01-26T20:31:44.038Z,14.45
2018-01-26T20:34:11.900Z,16.17
2018-01-26T20:36:39.866Z,13.30
2018-01-26T20:39:07.837Z,15.85
2018-01-26T20:41:35.699Z,14.43
2018-01-26T20:44:04.349Z,13.52
2018-01-26T20:46:32.610Z,13.85
2018-01-26T20:49:00.099Z,14.40
2018-01-26T20:51:28.370Z,13.00
2018-01-26T20:53:57.111Z,12.77
2018-01-26T20:56:24.631Z,12.37
2018-01-26T20:58:52.172Z,16.37
2018-01-26T21:01:20.445Z,15.57
2018-01-26T21:03:48.682Z,18.02
2018-01-26T21:06:16.192Z,16.62
2018-01-26T21:08:44.460Z,16.08
2018-01-26T21:11:12.747Z,19.02
2018-01-26T21:13:41.055Z,17.48
2018-01-26T21:16:09.327Z,16.75
2018-01-26T21:18:36.786Z,17.23
2018-01-26T21:21:04.292Z,14.18
2018-01-26T21:23:31.765Z,16.80
2018-01-26T21:26:00.043Z,18.45
2018-01-26T21:28:28.340Z,13.10
2018-01-26T21:30:56.577Z,20.30
2018-01-26T21:33:24.067Z,18.27
2018-01-26T21:35:52.318Z,28.02
2018-01-26T21:38:20.829Z,21.48
2018-01-26T21:40:48.354Z,24.02
2018-01-26T21:43:15.809Z,26.17
2018-01-26T21:45:43.318Z,28.80
2018-01-26T21:48:10.811Z,26.65
2018-01-26T21:50:38.278Z,29.15
2018-01-26T21:53:05.782Z,26.83
2018-01-26T21:55:33.258Z,30.25
2018-01-26T21:58:00.754Z,28.40
2018-01-26T22:00:28.221Z,25.33
2018-01-26T22:02:55.710Z,28.70
2018-01-26T22:05:23.978Z,25.40
2018-01-26T22:07:52.271Z,28.70
2018-01-26T22:10:19.740Z,28.73
2018-01-26T22:12:47.235Z,36.45
2018-01-26T22:15:14.718Z,30.00
2018-01-26T22:17:42.208Z,28.20
2018-01-26T22:20:10.459Z,29.90
2018-01-26T22:22:38.683Z,27.90
2018-01-26T22:25:06.213Z,34.28
2018-01-26T22:27:34.455Z,29.12
2018-01-26T22:30:01.941Z,32.35
2018-01-26T22:32:30.229Z,31.55
2018-01-26T22:34:57.748Z,32.88
2018-01-26T22:37:25.264Z,32.60
2018-01-26T22:39:52.756Z,30.83
2018-01-26T22:42:20.248Z,31.50
2018-01-26T22:44:48.518Z,38.83
2018-01-26T22:47:16.763Z,34.75
2018-01-26T22:49:44.257Z,35.53
2018-01-26T22:52:12.495Z,35.13
2018-01-26T22:54:39.965Z,35.08
2018-01-26T22:57:07.479Z,38.25
2018-01-26T22:59:34.986Z,44.95
2018-01-26T23:02:02.523Z,36.80
2018-01-26T23:04:30.022Z,38.28
2018-01-26T23:06:57.477Z,39.63
2018-01-26T23:09:24.967Z,48.95
2018-01-26T23:11:52.465Z,43.30
2018-01-26T23:14:19.969Z,41.78
2018-01-26T23:16:48.227Z,39.30
2018-01-26T23:19:15.693Z,44.75
2018-01-26T23:21:43.938Z,42.65
2018-01-26T23:24:11.436Z,42.85
2018-01-26T23:26:39.713Z,43.70
2018-01-26T23:29:07.959Z,43.67
2018-01-26T23:31:35.442Z,37.25
2018-01-26T23:34:03.705Z,41.15
2018-01-26T23:36:31.187Z,42.83
2018-01-26T23:38:59.446Z,44.30
2018-01-26T23:41:26.930Z,45.67
2018-01-26T23:43:54.432Z,44.28
2018-01-26T23:46:21.894Z,47.45
2018-01-26T23:48:49.627Z,43.13
2018-01-26T23:51:17.111Z,43.17
2018-01-26T23:53:44.598Z,40.83
2018-01-26T23:56:12.100Z,43.65
2018-01-26T23:58:39.566Z,45.50
